createdAt,value
2022-11-24T00:01:28.435Z,9.70
2022-11-24T00:04:00.773Z,9.70
2022-11-24T00:06:30.253Z,9.70
2022-11-24T00:08:59.481Z,9.60
2022-11-24T00:11:29.583Z,9.60
2022-11-24T00:13:58.408Z,9.70
2022-11-24T00:16:28.448Z,9.60
2022-11-24T00:18:59.797Z,9.70
2022-11-24T00:21:30.222Z,9.70
2022-11-24T00:23:58.828Z,9.60
2022-11-24T00:26:28.746Z,9.60
2022-11-24T00:29:01.741Z,9.60
2022-11-24T00:31:31.713Z,9.60
2022-11-24T00:34:03.593Z,9.60
2022-11-24T00:36:33.719Z,9.50
2022-11-24T00:39:04.018Z,9.50
2022-11-24T00:41:32.672Z,9.50
2022-11-24T00:44:01.336Z,9.50
2022-11-24T00:46:30.563Z,9.50
2022-11-24T00:49:01.696Z,9.50
2022-11-24T00:51:30.895Z,9.50
2022-11-24T00:53:59.440Z,9.60
2022-11-24T00:56:28.270Z,9.60
2022-11-24T00:58:56.398Z,9.50
2022-11-24T01:01:26.466Z,9.50
2022-11-24T01:03:55.857Z,9.50
2022-11-24T01:06:26.869Z,9.50
2022-11-24T01:08:57.105Z,9.40
2022-11-24T01:11:27.210Z,9.50
2022-11-24T01:13:58.490Z,9.40
2022-11-24T01:16:30.953Z,9.40
2022-11-24T01:18:59.167Z,9.40
2022-11-24T01:21:29.118Z,9.40
2022-11-24T01:23:58.423Z,9.40
2022-11-24T01:26:26.472Z,9.40
2022-11-24T01:28:55.541Z,9.40
2022-11-24T01:31:26.167Z,9.40
2022-11-24T01:33:54.856Z,9.40
2022-11-24T01:36:26.090Z,9.40
2022-11-24T01:38:55.417Z,9.40
2022-11-24T01:41:25.530Z,9.40
2022-11-24T01:43:55.805Z,9.30
2022-11-24T01:46:29.763Z,9.30
2022-11-24T01:49:04.663Z,9.30
2022-11-24T01:51:35.905Z,9.30
2022-11-24T01:54:09.482Z,9.30
2022-11-24T01:56:41.564Z,9.30
2022-11-24T01:59:13.517Z,9.20
2022-11-24T02:01:41.744Z,9.30
2022-11-24T02:04:14.388Z,9.30
2022-11-24T02:06:45.340Z,9.20
2022-11-24T02:09:23.019Z,9.20
2022-11-24T02:11:51.701Z,9.30
2022-11-24T02:14:20.570Z,9.30
2022-11-24T02:16:51.081Z,9.30
2022-11-24T02:19:28.228Z,9.30
2022-11-24T02:21:56.285Z,9.20
2022-11-24T02:24:32.868Z,9.30
2022-11-24T02:27:02.386Z,9.30
2022-11-24T02:29:30.326Z,9.20
2022-11-24T02:32:03.037Z,9.10
2022-11-24T02:34:31.357Z,9.20
2022-11-24T02:36:59.837Z,9.20
2022-11-24T02:39:28.048Z,9.20
2022-11-24T02:42:00.212Z,9.20
2022-11-24T02:44:32.883Z,9.20
2022-11-24T02:47:06.848Z,9.20
2022-11-24T02:49:34.840Z,9.20
2022-11-24T02:52:03.582Z,9.30
2022-11-24T02:54:31.932Z,9.30
2022-11-24T02:57:00.726Z,9.20
2022-11-24T02:59:30.293Z,9.20
2022-11-24T03:01:58.339Z,9.20
2022-11-24T03:04:26.407Z,9.20
2022-11-24T03:06:54.477Z,9.20
2022-11-24T03:09:22.871Z,9.20
2022-11-24T03:11:51.932Z,9.20
2022-11-24T03:14:19.885Z,9.20
2022-11-24T03:16:49.302Z,9.20
2022-11-24T03:19:17.247Z,9.10
2022-11-24T03:21:46.260Z,9.20
2022-11-24T03:24:14.398Z,9.20
2022-11-24T03:26:42.817Z,9.20
2022-11-24T03:29:10.903Z,9.20
2022-11-24T03:31:39.047Z,9.20
2022-11-24T03:34:08.496Z,9.30
2022-11-24T03:36:36.663Z,9.30
2022-11-24T03:39:05.047Z,9.40
2022-11-24T03:41:35.804Z,9.40
2022-11-24T03:44:04.054Z,9.40
2022-11-24T03:46:33.526Z,9.40
2022-11-24T03:49:01.715Z,9.40
2022-11-24T03:51:31.037Z,9.40
2022-11-24T03:53:59.052Z,9.30
2022-11-24T03:56:27.087Z,9.40
2022-11-24T03:58:55.334Z,9.30
2022-11-24T04:01:23.399Z,9.30
2022-11-24T04:03:51.340Z,9.30
2022-11-24T04:06:19.469Z,9.30
2022-11-24T04:08:48.872Z,9.20
2022-11-24T04:11:30.632Z,9.10
2022-11-24T04:13:58.806Z,9.10
2022-11-24T04:16:27.188Z,9.20
2022-11-24T04:18:55.417Z,9.10
2022-11-24T04:21:24.383Z,9.10
2022-11-24T04:23:53.715Z,9.10
2022-11-24T04:26:21.645Z,9.00
2022-11-24T04:28:49.569Z,9.00
2022-11-24T04:31:18.271Z,9.00
2022-11-24T04:33:46.265Z,9.00
2022-11-24T04:36:14.249Z,9.00
2022-11-24T04:39:25.983Z,9.00
2022-11-24T04:41:31.615Z,8.90
2022-11-24T04:43:59.931Z,8.90
2022-11-24T04:46:27.994Z,8.90
2022-11-24T04:48:56.027Z,8.90
2022-11-24T04:51:24.118Z,8.90
2022-11-24T04:53:52.041Z,8.90
2022-11-24T04:56:19.971Z,8.90
2022-11-24T04:58:50.991Z,8.90
2022-11-24T05:01:18.971Z,8.90
2022-11-24T05:04:07.028Z,8.90
2022-11-24T05:06:35.075Z,8.90
2022-11-24T05:09:02.972Z,8.90
2022-11-24T05:11:50.942Z,8.90
2022-11-24T05:14:20.378Z,8.90
2022-11-24T05:16:48.333Z,8.90
2022-11-24T05:19:16.901Z,8.90
2022-11-24T05:21:44.898Z,8.90
2022-11-24T05:24:12.981Z,8.90
2022-11-24T05:26:40.965Z,8.90
2022-11-24T05:29:08.937Z,8.90
2022-11-24T05:31:38.341Z,8.80
2022-11-24T05:34:06.425Z,8.90
2022-11-24T05:36:52.091Z,8.80
2022-11-24T05:39:20.394Z,8.80
2022-11-24T05:41:48.461Z,8.90
2022-11-24T05:44:16.408Z,8.90
2022-11-24T05:46:45.792Z,8.90
2022-11-24T05:49:15.733Z,8.90
2022-11-24T05:51:43.955Z,8.90
2022-11-24T05:54:11.864Z,8.90
2022-11-24T05:56:39.974Z,9.00
2022-11-24T05:59:09.935Z,9.00
2022-11-24T06:01:38.338Z,9.00
2022-11-24T06:04:07.808Z,9.00
2022-11-24T06:06:35.760Z,9.00
2022-11-24T06:09:04.271Z,9.00
2022-11-24T06:11:32.312Z,9.00
2022-11-24T06:14:00.427Z,9.00
2022-11-24T06:16:28.555Z,9.00
2022-11-24T06:18:56.510Z,9.00
2022-11-24T06:21:25.777Z,9.00
2022-11-24T06:23:53.741Z,9.00
2022-11-24T06:26:21.990Z,9.00
2022-11-24T06:28:49.914Z,9.00
2022-11-24T06:31:17.867Z,9.10
2022-11-24T06:33:46.000Z,9.00
2022-11-24T06:36:15.399Z,9.10
2022-11-24T06:38:44.715Z,9.10
2022-11-24T06:41:14.785Z,9.10
2022-11-24T06:43:42.986Z,9.10
2022-11-24T06:46:11.816Z,9.10
2022-11-24T06:48:39.937Z,9.10
2022-11-24T06:51:09.703Z,9.10
2022-11-24T06:53:39.149Z,9.20
2022-11-24T06:56:15.654Z,9.10
2022-11-24T06:58:46.317Z,9.20
2022-11-24T07:01:17.023Z,9.10
2022-11-24T07:03:45.146Z,9.10
2022-11-24T07:06:13.528Z,9.20
2022-11-24T07:08:41.472Z,9.20
2022-11-24T07:11:13.295Z,9.20
2022-11-24T07:13:41.259Z,9.20
2022-11-24T07:16:19.621Z,9.30
2022-11-24T07:18:48.491Z,9.30
2022-11-24T07:21:16.815Z,9.30
2022-11-24T07:23:45.367Z,9.20
2022-11-24T07:26:14.748Z,9.20
2022-11-24T07:28:42.742Z,9.30
2022-11-24T07:31:13.698Z,9.30
2022-11-24T07:33:42.189Z,9.30
2022-11-24T07:36:10.850Z,9.30
2022-11-24T07:38:38.838Z,9.20
2022-11-24T07:41:08.655Z,9.30
2022-11-24T07:43:39.947Z,9.20
2022-11-24T07:46:11.654Z,9.20
2022-11-24T07:48:39.827Z,9.20
2022-11-24T07:51:09.090Z,9.20
2022-11-24T07:53:37.620Z,9.10
2022-11-24T07:56:07.345Z,9.20
2022-11-24T07:58:38.221Z,9.20
2022-11-24T08:01:14.811Z,9.20
2022-11-24T08:03:43.825Z,9.20
2022-11-24T08:06:35.395Z,9.20
2022-11-24T08:09:00.934Z,9.20
2022-11-24T08:11:31.389Z,9.20
2022-11-24T08:14:01.025Z,9.20
2022-11-24T08:16:29.136Z,9.20
2022-11-24T08:18:57.533Z,9.20
2022-11-24T08:21:25.967Z,9.20
2022-11-24T08:23:56.616Z,9.30
2022-11-24T08:26:25.611Z,9.30
2022-11-24T08:28:56.436Z,9.30
2022-11-24T08:31:32.556Z,9.30
2022-11-24T08:34:01.316Z,9.30
2022-11-24T08:36:29.517Z,9.40
2022-11-24T08:38:59.349Z,9.40
2022-11-24T08:41:28.967Z,9.40
2022-11-24T08:43:57.419Z,9.40
2022-11-24T08:46:26.956Z,9.40
2022-11-24T08:48:56.264Z,9.40
2022-11-24T08:51:26.555Z,9.50
2022-11-24T08:53:56.909Z,9.50
2022-11-24T08:56:25.607Z,9.50
2022-11-24T08:58:54.678Z,9.50
2022-11-24T09:01:23.445Z,9.50
2022-11-24T09:03:53.131Z,9.50
2022-11-24T09:06:23.902Z,9.60
2022-11-24T09:08:52.391Z,9.60
2022-11-24T09:11:20.372Z,9.60
2022-11-24T09:13:48.364Z,9.60
2022-11-24T09:16:18.448Z,9.60
2022-11-24T09:18:48.317Z,9.60
2022-11-24T09:21:19.765Z,9.60
2022-11-24T09:23:49.491Z,9.70
2022-11-24T09:26:18.837Z,9.60
2022-11-24T09:28:48.078Z,9.70
2022-11-24T09:31:18.207Z,9.70
2022-11-24T09:33:46.918Z,9.70
2022-11-24T09:36:15.672Z,9.70
2022-11-24T09:38:45.024Z,9.70
2022-11-24T09:41:39.318Z,9.70
2022-11-24T09:44:25.494Z,9.70
2022-11-24T09:47:02.550Z,9.80
2022-11-24T09:49:37.753Z,9.80
2022-11-24T09:52:10.872Z,9.80
2022-11-24T09:54:54.587Z,9.80
2022-11-24T09:57:26.773Z,9.80
2022-11-24T10:00:00.422Z,9.80
2022-11-24T10:02:28.604Z,9.90
2022-11-24T10:04:56.714Z,9.90
2022-11-24T10:07:31.643Z,10.00
2022-11-24T10:10:07.762Z,10.00
2022-11-24T10:12:47.918Z,10.00
2022-11-24T10:15:38.004Z,10.00
2022-11-24T10:18:33.181Z,10.00
2022-11-24T10:21:11.596Z,10.00
2022-11-24T10:23:55.500Z,10.00
2022-11-24T10:26:35.908Z,10.00
2022-11-24T10:29:16.753Z,10.00
2022-11-24T10:31:46.816Z,10.00
2022-11-24T10:34:25.620Z,10.00
2022-11-24T10:36:58.858Z,10.00
2022-11-24T10:39:33.686Z,10.00
2022-11-24T10:42:13.040Z,10.00
2022-11-24T10:44:42.551Z,10.00
2022-11-24T10:47:19.782Z,10.00
2022-11-24T10:49:56.355Z,10.00
2022-11-24T10:52:26.917Z,10.00
2022-11-24T10:54:57.476Z,10.00
2022-11-24T10:57:32.810Z,10.00
2022-11-24T11:00:01.363Z,10.10
2022-11-24T11:02:38.792Z,10.00
2022-11-24T11:05:29.222Z,10.00
2022-11-24T11:08:20.275Z,10.00
2022-11-24T11:10:50.588Z,10.00
2022-11-24T11:13:25.815Z,10.00
2022-11-24T11:15:55.205Z,10.00
2022-11-24T11:18:28.000Z,10.20
2022-11-24T11:20:58.330Z,10.10
2022-11-24T11:23:29.482Z,10.00
2022-11-24T11:26:21.362Z,10.10
2022-11-24T11:34:54.633Z,10.10
2022-11-24T11:37:26.371Z,10.20
2022-11-24T11:39:56.280Z,10.20
2022-11-24T11:43:00.165Z,10.20
2022-11-24T11:45:19.429Z,10.20
2022-11-24T11:47:53.761Z,10.30
2022-11-24T11:50:26.469Z,10.30
2022-11-24T11:53:10.923Z,10.30
2022-11-24T11:56:04.444Z,10.30
2022-11-24T11:58:54.237Z,10.30
2022-11-24T12:01:39.581Z,10.30
2022-11-24T12:04:21.661Z,10.40
2022-11-24T12:07:07.524Z,10.40
2022-11-24T12:09:52.886Z,10.40
2022-11-24T12:12:46.946Z,10.40
2022-11-24T12:15:24.193Z,10.40
2022-11-24T12:17:58.680Z,10.40
2022-11-24T12:20:48.842Z,10.50
2022-11-24T12:23:26.595Z,10.50
2022-11-24T12:26:00.515Z,10.50
2022-11-24T12:28:42.009Z,10.50
2022-11-24T12:31:20.178Z,10.50
2022-11-24T12:34:14.686Z,10.50
2022-11-24T12:36:57.178Z,10.60
2022-11-24T12:39:32.877Z,10.60
2022-11-24T12:42:26.119Z,10.60
2022-11-24T12:45:14.081Z,10.70
2022-11-24T12:48:00.736Z,10.70
2022-11-24T12:50:32.097Z,10.70
2022-11-24T12:53:05.216Z,10.70
2022-11-24T12:55:34.665Z,10.70
2022-11-24T12:58:11.602Z,10.70
2022-11-24T13:00:54.670Z,10.70
2022-11-24T13:03:33.355Z,10.70
2022-11-24T13:06:08.427Z,10.70
2022-11-24T13:08:37.788Z,10.70
2022-11-24T13:11:41.698Z,10.70
2022-11-24T13:14:18.582Z,10.80
2022-11-24T13:17:31.190Z,10.80
2022-11-24T13:20:22.864Z,10.80
2022-11-24T13:22:54.416Z,10.80
2022-11-24T13:25:26.000Z,10.80
2022-11-24T13:27:55.488Z,10.80
2022-11-24T13:30:59.320Z,10.80
2022-11-24T13:33:40.557Z,10.80
2022-11-24T13:36:34.511Z,10.80
2022-11-24T13:39:06.191Z,10.90
2022-11-24T13:42:01.600Z,10.90
2022-11-24T13:44:29.643Z,10.90
2022-11-24T13:47:05.161Z,10.90
2022-11-24T13:49:39.428Z,10.90
2022-11-24T13:52:40.848Z,10.90
2022-11-24T13:55:26.991Z,10.90
2022-11-24T13:57:58.735Z,10.90
2022-11-24T14:00:29.115Z,11.00
2022-11-24T14:03:01.962Z,11.10
2022-11-24T14:05:36.733Z,11.10
2022-11-24T14:08:07.185Z,11.10
2022-11-24T14:10:41.603Z,11.10
2022-11-24T14:13:26.111Z,11.20
2022-11-24T14:16:02.406Z,11.20
2022-11-24T14:18:31.707Z,11.20
2022-11-24T14:21:01.619Z,11.20
2022-11-24T14:23:29.770Z,11.20
2022-11-24T14:25:59.143Z,11.20
2022-11-24T14:28:29.700Z,11.30
2022-11-24T14:31:08.297Z,11.20
2022-11-24T14:33:37.758Z,11.20
2022-11-24T14:36:06.494Z,11.20
2022-11-24T14:38:35.165Z,11.20
2022-11-24T14:41:23.369Z,11.20
2022-11-24T14:43:51.501Z,11.10
2022-11-24T14:46:20.474Z,11.10
2022-11-24T14:48:50.948Z,11.10
2022-11-24T14:51:25.848Z,11.00
2022-11-24T14:53:56.629Z,11.00
2022-11-24T14:56:28.223Z,10.90
2022-11-24T14:58:57.999Z,10.90
2022-11-24T15:01:34.748Z,10.90
2022-11-24T15:04:22.040Z,10.90
2022-11-24T15:07:13.148Z,10.90
2022-11-24T15:09:51.929Z,10.90
2022-11-24T15:12:29.016Z,10.80
2022-11-24T15:15:01.384Z,10.80
2022-11-24T15:17:30.937Z,10.80
2022-11-24T15:20:03.246Z,10.80
2022-11-24T15:22:40.416Z,10.70
2022-11-24T15:25:32.709Z,10.70
2022-11-24T15:28:03.356Z,10.70
2022-11-24T15:30:31.908Z,10.70
2022-11-24T15:33:00.865Z,10.60
2022-11-24T15:35:33.200Z,10.60
2022-11-24T15:38:01.309Z,10.60
2022-11-24T15:40:29.376Z,10.60
2022-11-24T15:43:01.949Z,10.50
2022-11-24T15:45:35.655Z,10.60
2022-11-24T15:48:03.605Z,10.50
2022-11-24T15:50:31.615Z,10.50
2022-11-24T15:52:59.927Z,10.50
2022-11-24T15:55:27.850Z,10.50
2022-11-24T15:57:55.846Z,10.50
2022-11-24T16:00:25.082Z,10.50
2022-11-24T16:02:54.561Z,10.50
2022-11-24T16:05:22.463Z,10.40
2022-11-24T16:07:50.466Z,10.40
2022-11-24T16:10:25.138Z,10.40
2022-11-24T16:12:53.138Z,10.40
2022-11-24T16:15:21.307Z,10.40
2022-11-24T16:17:49.573Z,10.40
2022-11-24T16:20:19.332Z,10.40
2022-11-24T16:22:47.503Z,10.40
2022-11-24T16:25:16.024Z,10.40
2022-11-24T16:27:44.434Z,10.30
2022-11-24T16:30:14.090Z,10.30
2022-11-24T16:32:42.156Z,10.40
2022-11-24T16:35:10.398Z,10.30
2022-11-24T16:37:39.929Z,10.30
2022-11-24T16:40:09.131Z,10.30
2022-11-24T16:42:37.154Z,10.30
2022-11-24T16:45:06.250Z,10.20
2022-11-24T16:47:39.439Z,10.30
2022-11-24T16:50:08.959Z,10.30
2022-11-24T16:52:37.255Z,10.30
2022-11-24T16:55:09.649Z,10.30
2022-11-24T16:57:37.677Z,10.30
2022-11-24T17:00:07.176Z,10.30
2022-11-24T17:02:35.460Z,10.30
2022-11-24T17:05:03.694Z,10.30
2022-11-24T17:07:32.559Z,10.30
2022-11-24T17:10:01.125Z,10.30
2022-11-24T17:12:30.616Z,10.40
2022-11-24T17:15:30.613Z,10.30
2022-11-24T17:18:16.234Z,10.30
2022-11-24T17:20:36.064Z,10.30
2022-11-24T17:23:04.023Z,10.30
2022-11-24T17:25:33.249Z,10.30
2022-11-24T17:28:02.713Z,10.30
2022-11-24T17:30:30.718Z,10.30
2022-11-24T17:32:58.715Z,10.30
2022-11-24T17:35:26.677Z,10.30
2022-11-24T17:38:12.705Z,10.40
2022-11-24T17:40:40.848Z,10.30
2022-11-24T17:43:10.511Z,10.30
2022-11-24T17:45:38.788Z,10.40
2022-11-24T17:48:07.360Z,10.40
2022-11-24T17:50:35.405Z,10.30
2022-11-24T17:53:03.489Z,10.30
2022-11-24T17:55:31.815Z,10.30
2022-11-24T17:57:59.790Z,10.30
2022-11-24T18:00:29.541Z,10.30
2022-11-24T18:02:57.726Z,10.30
2022-11-24T18:05:25.697Z,10.30
2022-11-24T18:07:54.226Z,10.30
2022-11-24T18:10:22.218Z,10.20
2022-11-24T18:12:50.169Z,10.20
2022-11-24T18:15:18.342Z,10.30
2022-11-24T18:17:47.865Z,10.20
2022-11-24T18:20:16.018Z,10.10
2022-11-24T18:23:04.624Z,10.10
2022-11-24T18:25:39.747Z,10.10
2022-11-24T18:28:07.725Z,10.10
2022-11-24T18:30:35.765Z,10.10
2022-11-24T18:33:05.211Z,10.10
2022-11-24T18:35:33.270Z,10.10
2022-11-24T18:38:01.318Z,10.10
2022-11-24T18:40:29.420Z,10.20
2022-11-24T18:42:57.472Z,10.10
2022-11-24T18:45:25.487Z,10.10
2022-11-24T18:47:53.901Z,10.10
2022-11-24T18:50:23.655Z,10.10
2022-11-24T18:52:51.908Z,10.10
2022-11-24T18:55:20.211Z,10.10
2022-11-24T18:57:49.147Z,10.10
2022-11-24T19:00:18.827Z,10.10
2022-11-24T19:02:51.654Z,10.00
2022-11-24T19:05:20.995Z,10.00
2022-11-24T19:07:50.623Z,10.00
2022-11-24T19:10:18.892Z,10.00
2022-11-24T19:12:47.130Z,10.00
2022-11-24T19:15:15.519Z,9.90
2022-11-24T19:18:03.633Z,9.90
2022-11-24T19:20:58.807Z,9.90
2022-11-24T19:23:28.243Z,9.90
2022-11-24T19:25:57.009Z,9.90
2022-11-24T19:28:27.585Z,9.90
2022-11-24T19:31:20.872Z,9.90
2022-11-24T19:33:54.456Z,9.90
2022-11-24T19:36:23.193Z,9.90
2022-11-24T19:38:55.054Z,9.90
2022-11-24T19:41:25.206Z,9.90
2022-11-24T19:43:54.734Z,9.90
2022-11-24T19:46:27.848Z,9.90
2022-11-24T19:49:00.003Z,9.90
2022-11-24T19:51:31.201Z,9.90
2022-11-24T19:54:01.477Z,9.90
2022-11-24T19:56:37.303Z,9.90
2022-11-24T19:59:07.437Z,9.80
2022-11-24T20:01:38.495Z,9.90
2022-11-24T20:04:09.334Z,9.90
2022-11-24T20:06:39.403Z,9.90
2022-11-24T20:09:10.506Z,9.90
2022-11-24T20:11:41.091Z,10.00
2022-11-24T20:14:15.241Z,10.00
2022-11-24T20:16:46.757Z,10.00
2022-11-24T20:19:17.205Z,10.00
2022-11-24T20:21:47.642Z,10.00
2022-11-24T20:24:20.089Z,10.00
2022-11-24T20:26:50.136Z,10.00
2022-11-24T20:29:45.263Z,10.00
2022-11-24T20:32:20.026Z,10.00
2022-11-24T20:34:49.301Z,10.00
2022-11-24T20:37:17.752Z,10.10
2022-11-24T20:40:07.198Z,10.10
2022-11-24T20:42:39.675Z,10.10
2022-11-24T20:45:08.924Z,10.10
2022-11-24T20:47:37.174Z,10.10
2022-11-24T20:50:05.582Z,10.10
2022-11-24T20:52:34.468Z,10.10
2022-11-24T20:55:04.190Z,10.10
2022-11-24T20:57:32.318Z,10.20
2022-11-24T21:00:00.307Z,10.20
2022-11-24T21:02:30.972Z,10.30
2022-11-24T21:04:59.410Z,10.30
2022-11-24T21:07:27.876Z,10.30
2022-11-24T21:09:56.790Z,10.30
2022-11-24T21:12:26.623Z,10.30
2022-11-24T21:14:54.577Z,10.30
2022-11-24T21:17:22.906Z,10.40
2022-11-24T21:19:51.121Z,10.40
2022-11-24T21:22:19.091Z,10.40
2022-11-24T21:24:51.161Z,10.40
2022-11-24T21:27:19.478Z,10.40
2022-11-24T21:29:49.299Z,10.40
2022-11-24T21:32:17.261Z,10.40
2022-11-24T21:34:45.469Z,10.40
2022-11-24T21:37:14.870Z,10.40
2022-11-24T21:39:44.781Z,10.50
2022-11-24T21:42:33.413Z,10.50
2022-11-24T21:45:03.670Z,10.50
2022-11-24T21:47:31.556Z,10.60
2022-11-24T21:50:00.096Z,10.60
2022-11-24T21:52:28.137Z,10.60
2022-11-24T21:54:56.374Z,10.60
2022-11-24T21:57:26.783Z,10.60
2022-11-24T21:59:55.828Z,10.60
2022-11-24T22:02:25.232Z,10.70
2022-11-24T22:04:53.530Z,10.70
2022-11-24T22:07:41.657Z,10.70
2022-11-24T22:10:10.847Z,10.70
2022-11-24T22:12:39.199Z,10.70
2022-11-24T22:15:09.052Z,10.80
2022-11-24T22:17:38.353Z,10.80
2022-11-24T22:20:07.959Z,10.80
2022-11-24T22:22:36.423Z,10.80
2022-11-24T22:25:04.655Z,10.80
2022-11-24T22:27:32.624Z,10.80
2022-11-24T22:30:00.744Z,10.80
2022-11-24T22:32:28.925Z,10.70
2022-11-24T22:34:58.244Z,10.70
2022-11-24T22:37:26.724Z,10.80
2022-11-24T22:39:56.650Z,10.80
2022-11-24T22:42:25.608Z,10.80
2022-11-24T22:44:53.563Z,10.80
2022-11-24T22:47:21.504Z,10.80
2022-11-24T22:49:49.589Z,10.80
2022-11-24T22:52:19.204Z,10.80
2022-11-24T22:54:47.124Z,10.80
2022-11-24T22:57:15.424Z,10.80
2022-11-24T22:59:48.850Z,10.80
2022-11-24T23:02:17.049Z,10.80
2022-11-24T23:04:44.990Z,10.80
2022-11-24T23:07:13.236Z,10.80
2022-11-24T23:09:42.945Z,10.80
2022-11-24T23:12:10.844Z,10.80
2022-11-24T23:14:38.952Z,10.80
2022-11-24T23:17:06.864Z,10.80
2022-11-24T23:19:35.549Z,10.80
2022-11-24T23:22:03.563Z,10.80
2022-11-24T23:24:31.442Z,10.80
2022-11-24T23:27:00.847Z,10.80
2022-11-24T23:29:28.793Z,10.90
2022-11-24T23:32:16.760Z,10.80
2022-11-24T23:34:44.682Z,10.90
2022-11-24T23:37:12.568Z,10.80
2022-11-24T23:39:40.546Z,10.80
2022-11-24T23:42:09.907Z,10.80
2022-11-24T23:44:37.939Z,10.80
2022-11-24T23:47:07.556Z,10.80
2022-11-24T23:49:35.823Z,10.80
2022-11-24T23:52:03.854Z,10.80
2022-11-24T23:54:32.171Z,10.80
2022-11-24T23:57:00.233Z,10.70
2022-11-24T23:59:29.680Z,10.80
